RYR094 EPKK-EPSC
Flight info
| Callsign | RYR094 |
|---|---|
| Flight time | 0h 52m |
| Altitude | 18000 |
| Route | LUMV2J LUMVE ZAWIK ZAWI1B |
| Aircraft | B738/M-SDE2E3FGHIRWXY/S |
Departure
| Time | 2026-04-26 16:08 |
|---|---|
| Airport | Kraków John Paul II International Airport (EPKK) |
Arrival
| Time | 2026-04-26 17:01 |
|---|---|
| Airport | Solidarity Szczecin–Goleniów Airport (EPSC) |
| Time | Latitude | Longitude | Altitude | Speed | Heading |
|---|---|---|---|---|---|
| 2026-04-26 15:58 | 50.07568 | 19.79644 | 789 ft | 0 kts | 258° |
| 2026-04-26 16:02 | 50.07568 | 19.79645 | 789 ft | 2 kts | 257° |
| 2026-04-26 16:02 | 50.07571 | 19.79662 | 789 ft | 2 kts | 258° |
| 2026-04-26 16:03 | 50.07575 | 19.79696 | 789 ft | 2 kts | 262° |
| 2026-04-26 16:03 | 50.07575 | 19.79721 | 789 ft | 2 kts | 326° |
| 2026-04-26 16:03 | 50.07559 | 19.79729 | 789 ft | 2 kts | 348° |
| 2026-04-26 16:03 | 50.07547 | 19.79733 | 789 ft | 1 kts | 348° |
| 2026-04-26 16:04 | 50.07546 | 19.79733 | 789 ft | 0 kts | 348° |
| 2026-04-26 16:05 | 50.07557 | 19.79729 | 789 ft | 5 kts | 347° |
| 2026-04-26 16:05 | 50.07613 | 19.79711 | 789 ft | 11 kts | 349° |
| 2026-04-26 16:05 | 50.07681 | 19.79714 | 789 ft | 8 kts | 47° |
| 2026-04-26 16:06 | 50.07702 | 19.79796 | 789 ft | 11 kts | 77° |
| 2026-04-26 16:06 | 50.07728 | 19.79979 | 789 ft | 23 kts | 78° |
| 2026-04-26 16:06 | 50.07762 | 19.80215 | 789 ft | 20 kts | 78° |
| 2026-04-26 16:06 | 50.07811 | 19.80336 | 790 ft | 13 kts | 12° |
| 2026-04-26 16:07 | 50.07843 | 19.80335 | 790 ft | 0 kts | 347° |
| 2026-04-26 16:07 | 50.07844 | 19.80335 | 790 ft | 2 kts | 347° |
| 2026-04-26 16:07 | 50.07905 | 19.80314 | 790 ft | 15 kts | 347° |
| 2026-04-26 16:07 | 50.08014 | 19.80212 | 789 ft | 22 kts | 271° |
| 2026-04-26 16:08 | 50.07948 | 19.79730 | 789 ft | 81 kts | 258° |
| 2026-04-26 16:08 | 50.07847 | 19.78996 | 791 ft | 127 kts | 258° |
| 2026-04-26 16:08 | 50.07530 | 19.76827 | 1264 ft | 167 kts | 261° |
| 2026-04-26 16:08 | 50.07263 | 19.74900 | 1704 ft | 199 kts | 262° |
| 2026-04-26 16:09 | 50.06962 | 19.72729 | 2227 ft | 211 kts | 262° |
| 2026-04-26 16:09 | 50.06645 | 19.70437 | 2750 ft | 219 kts | 263° |
| 2026-04-26 16:09 | 50.06321 | 19.68115 | 3457 ft | 220 kts | 262° |
| 2026-04-26 16:09 | 50.05993 | 19.65772 | 4219 ft | 222 kts | 262° |
| 2026-04-26 16:10 | 50.05664 | 19.63441 | 5082 ft | 221 kts | 263° |
| 2026-04-26 16:10 | 50.05591 | 19.61087 | 5730 ft | 220 kts | 290° |
| 2026-04-26 16:10 | 50.06412 | 19.59046 | 6146 ft | 233 kts | 312° |
| 2026-04-26 16:10 | 50.07520 | 19.57007 | 6359 ft | 260 kts | 310° |
| 2026-04-26 16:11 | 50.08720 | 19.54728 | 6598 ft | 284 kts | 310° |
| 2026-04-26 16:11 | 50.10001 | 19.52269 | 6790 ft | 308 kts | 310° |
| 2026-04-26 16:11 | 50.11415 | 19.49530 | 7003 ft | 330 kts | 309° |
| 2026-04-26 16:11 | 50.12848 | 19.46729 | 7575 ft | 339 kts | 309° |
| 2026-04-26 16:12 | 50.14315 | 19.43839 | 8361 ft | 340 kts | 310° |
| 2026-04-26 16:12 | 50.15782 | 19.40933 | 9154 ft | 342 kts | 310° |
| 2026-04-26 16:12 | 50.18741 | 19.35044 | 10609 ft | 347 kts | 310° |
| 2026-04-26 16:13 | 50.20135 | 19.32257 | 11293 ft | 347 kts | 310° |
| 2026-04-26 16:13 | 50.21625 | 19.29278 | 11985 ft | 349 kts | 310° |
| 2026-04-26 16:13 | 50.23121 | 19.26281 | 12648 ft | 351 kts | 310° |
| 2026-04-26 16:13 | 50.24627 | 19.23261 | 13309 ft | 353 kts | 310° |
| 2026-04-26 16:14 | 50.26140 | 19.20222 | 13983 ft | 355 kts | 310° |
| 2026-04-26 16:14 | 50.27663 | 19.17161 | 14555 ft | 358 kts | 310° |
| 2026-04-26 16:14 | 50.30740 | 19.10965 | 15677 ft | 363 kts | 310° |
| 2026-04-26 16:15 | 50.32290 | 19.07838 | 16246 ft | 365 kts | 310° |
| 2026-04-26 16:15 | 50.33848 | 19.04689 | 16793 ft | 367 kts | 310° |
| 2026-04-26 16:15 | 50.35416 | 19.01520 | 17317 ft | 370 kts | 310° |
| 2026-04-26 16:16 | 50.38584 | 18.95100 | 18353 ft | 375 kts | 309° |
| 2026-04-26 16:16 | 50.40182 | 18.91856 | 18820 ft | 377 kts | 309° |
| 2026-04-26 16:16 | 50.41789 | 18.88589 | 19250 ft | 380 kts | 309° |
| 2026-04-26 16:16 | 50.43405 | 18.85299 | 19686 ft | 382 kts | 309° |
| 2026-04-26 16:17 | 50.45030 | 18.81989 | 20123 ft | 384 kts | 309° |
| 2026-04-26 16:17 | 50.46666 | 18.78651 | 20555 ft | 386 kts | 309° |
| 2026-04-26 16:17 | 50.48307 | 18.75298 | 20970 ft | 389 kts | 309° |
| 2026-04-26 16:17 | 50.49958 | 18.71921 | 21363 ft | 391 kts | 309° |
| 2026-04-26 16:18 | 50.51598 | 18.68563 | 21758 ft | 393 kts | 309° |
| 2026-04-26 16:18 | 50.54939 | 18.61707 | 22527 ft | 398 kts | 308° |
| 2026-04-26 16:19 | 50.58317 | 18.54754 | 23256 ft | 402 kts | 308° |
| 2026-04-26 16:19 | 50.60017 | 18.51251 | 23618 ft | 404 kts | 308° |
| 2026-04-26 16:19 | 50.62886 | 18.45324 | 24124 ft | 408 kts | 308° |
| 2026-04-26 16:20 | 50.65166 | 18.40604 | 24536 ft | 409 kts | 308° |
| 2026-04-26 16:20 | 50.68626 | 18.33429 | 25103 ft | 413 kts | 307° |
| 2026-04-26 16:20 | 50.70366 | 18.29813 | 25365 ft | 415 kts | 307° |
| 2026-04-26 16:21 | 50.72144 | 18.26222 | 25634 ft | 416 kts | 311° |
| 2026-04-26 16:21 | 50.74194 | 18.22981 | 25903 ft | 418 kts | 317° |
| 2026-04-26 16:21 | 50.76497 | 18.20159 | 26153 ft | 422 kts | 325° |
| 2026-04-26 16:21 | 50.79009 | 18.17756 | 26415 ft | 424 kts | 326° |
| 2026-04-26 16:22 | 50.80680 | 18.16130 | 26461 ft | 425 kts | 325° |
| 2026-04-26 16:22 | 50.83178 | 18.13637 | 26381 ft | 424 kts | 325° |
| 2026-04-26 16:22 | 50.85680 | 18.11167 | 26277 ft | 424 kts | 326° |
| 2026-04-26 16:22 | 50.88177 | 18.08710 | 26264 ft | 422 kts | 326° |
| 2026-04-26 16:23 | 50.90674 | 18.06249 | 26262 ft | 422 kts | 326° |
| 2026-04-26 16:23 | 50.93170 | 18.03782 | 26259 ft | 423 kts | 325° |
| 2026-04-26 16:23 | 50.95665 | 18.01308 | 26256 ft | 423 kts | 325° |
| 2026-04-26 16:23 | 50.98162 | 17.98825 | 26255 ft | 424 kts | 325° |
| 2026-04-26 16:24 | 51.00662 | 17.96334 | 26254 ft | 424 kts | 325° |
| 2026-04-26 16:24 | 51.03163 | 17.93837 | 26254 ft | 424 kts | 325° |
| 2026-04-26 16:24 | 51.05663 | 17.91338 | 26259 ft | 424 kts | 325° |
| 2026-04-26 16:24 | 51.08163 | 17.88835 | 26261 ft | 425 kts | 325° |
| 2026-04-26 16:25 | 51.10661 | 17.86331 | 26257 ft | 425 kts | 325° |
| 2026-04-26 16:25 | 51.13162 | 17.83821 | 26259 ft | 425 kts | 325° |
| 2026-04-26 16:25 | 51.15661 | 17.81310 | 26256 ft | 425 kts | 325° |
| 2026-04-26 16:25 | 51.18157 | 17.78798 | 26256 ft | 425 kts | 325° |
| 2026-04-26 16:26 | 51.20655 | 17.76281 | 26260 ft | 424 kts | 325° |
| 2026-04-26 16:26 | 51.23152 | 17.73762 | 26260 ft | 424 kts | 325° |
| 2026-04-26 16:26 | 51.25645 | 17.71243 | 26256 ft | 424 kts | 325° |
| 2026-04-26 16:26 | 51.28140 | 17.68720 | 26260 ft | 424 kts | 325° |
| 2026-04-26 16:27 | 51.30633 | 17.66195 | 26259 ft | 424 kts | 325° |
| 2026-04-26 16:27 | 51.33122 | 17.63671 | 26260 ft | 424 kts | 325° |
| 2026-04-26 16:27 | 51.35580 | 17.61175 | 26255 ft | 424 kts | 325° |
| 2026-04-26 16:27 | 51.38071 | 17.58642 | 26262 ft | 424 kts | 325° |
| 2026-04-26 16:28 | 51.40560 | 17.56109 | 26269 ft | 424 kts | 324° |
| 2026-04-26 16:28 | 51.43048 | 17.53572 | 26264 ft | 424 kts | 324° |
| 2026-04-26 16:28 | 51.45535 | 17.51034 | 26263 ft | 424 kts | 324° |
| 2026-04-26 16:28 | 51.48021 | 17.48492 | 26261 ft | 424 kts | 324° |
| 2026-04-26 16:29 | 51.50508 | 17.45947 | 26260 ft | 424 kts | 324° |
| 2026-04-26 16:29 | 51.52994 | 17.43400 | 26258 ft | 424 kts | 324° |
| 2026-04-26 16:29 | 51.55481 | 17.40848 | 26266 ft | 424 kts | 324° |
| 2026-04-26 16:29 | 51.57964 | 17.38297 | 26265 ft | 423 kts | 324° |
| 2026-04-26 16:30 | 51.60442 | 17.35747 | 26265 ft | 423 kts | 324° |
| 2026-04-26 16:30 | 51.62922 | 17.33193 | 26269 ft | 423 kts | 324° |
| 2026-04-26 16:30 | 51.65405 | 17.30631 | 26268 ft | 423 kts | 324° |
| 2026-04-26 16:30 | 51.67884 | 17.28070 | 26268 ft | 424 kts | 324° |
| 2026-04-26 16:31 | 51.70364 | 17.25506 | 26271 ft | 424 kts | 324° |
| 2026-04-26 16:31 | 51.72843 | 17.22938 | 26266 ft | 424 kts | 324° |
| 2026-04-26 16:31 | 51.75324 | 17.20365 | 26266 ft | 424 kts | 324° |
| 2026-04-26 16:31 | 51.77800 | 17.17794 | 26265 ft | 423 kts | 324° |
| 2026-04-26 16:32 | 51.80279 | 17.15217 | 26265 ft | 423 kts | 324° |
| 2026-04-26 16:32 | 51.81883 | 17.13547 | 26267 ft | 423 kts | 324° |
| 2026-04-26 16:32 | 51.85197 | 17.10093 | 26270 ft | 423 kts | 324° |
| 2026-04-26 16:32 | 51.87638 | 17.07545 | 26260 ft | 421 kts | 324° |
| 2026-04-26 16:33 | 51.90068 | 17.05009 | 25886 ft | 411 kts | 324° |
| 2026-04-26 16:33 | 51.92456 | 17.02512 | 25204 ft | 408 kts | 324° |
| 2026-04-26 16:33 | 51.94844 | 17.00009 | 24384 ft | 409 kts | 324° |
| 2026-04-26 16:33 | 51.97235 | 16.97498 | 23615 ft | 409 kts | 324° |
| 2026-04-26 16:34 | 51.99606 | 16.95007 | 22958 ft | 404 kts | 324° |
| 2026-04-26 16:34 | 52.01946 | 16.92547 | 22330 ft | 398 kts | 324° |
| 2026-04-26 16:34 | 52.04255 | 16.90116 | 21677 ft | 394 kts | 324° |
| 2026-04-26 16:34 | 52.06542 | 16.87704 | 21013 ft | 390 kts | 324° |
| 2026-04-26 16:35 | 52.08773 | 16.85347 | 20387 ft | 387 kts | 324° |
| 2026-04-26 16:35 | 52.11019 | 16.82973 | 19771 ft | 383 kts | 324° |
| 2026-04-26 16:35 | 52.13242 | 16.80620 | 19169 ft | 380 kts | 324° |
| 2026-04-26 16:35 | 52.15442 | 16.78288 | 18587 ft | 376 kts | 324° |
| 2026-04-26 16:36 | 52.17626 | 16.75970 | 17931 ft | 373 kts | 324° |
| 2026-04-26 16:36 | 52.19786 | 16.73676 | 17286 ft | 369 kts | 325° |
| 2026-04-26 16:36 | 52.21934 | 16.71416 | 16659 ft | 366 kts | 324° |
| 2026-04-26 16:36 | 52.24057 | 16.69153 | 16028 ft | 363 kts | 324° |
| 2026-04-26 16:37 | 52.26160 | 16.66904 | 15518 ft | 359 kts | 324° |
| 2026-04-26 16:37 | 52.28266 | 16.64649 | 15403 ft | 363 kts | 324° |
| 2026-04-26 16:37 | 52.30372 | 16.62394 | 15299 ft | 361 kts | 324° |
| 2026-04-26 16:37 | 52.32466 | 16.60151 | 15280 ft | 360 kts | 324° |
| 2026-04-26 16:38 | 52.34561 | 16.57905 | 15274 ft | 360 kts | 324° |
| 2026-04-26 16:38 | 52.36659 | 16.55655 | 15271 ft | 360 kts | 324° |
| 2026-04-26 16:38 | 52.38755 | 16.53405 | 15274 ft | 360 kts | 324° |
| 2026-04-26 16:38 | 52.40849 | 16.51154 | 15273 ft | 360 kts | 324° |
| 2026-04-26 16:39 | 52.42943 | 16.48901 | 15274 ft | 360 kts | 324° |
| 2026-04-26 16:39 | 52.45033 | 16.46650 | 15278 ft | 360 kts | 323° |
| 2026-04-26 16:39 | 52.47127 | 16.44392 | 15280 ft | 360 kts | 323° |
| 2026-04-26 16:39 | 52.49217 | 16.42136 | 15277 ft | 360 kts | 323° |
| 2026-04-26 16:40 | 52.51306 | 16.39877 | 15281 ft | 360 kts | 323° |
| 2026-04-26 16:40 | 52.53396 | 16.37616 | 15279 ft | 360 kts | 323° |
| 2026-04-26 16:40 | 52.55458 | 16.35382 | 15282 ft | 360 kts | 323° |
| 2026-04-26 16:40 | 52.57543 | 16.33120 | 15281 ft | 360 kts | 323° |
| 2026-04-26 16:41 | 52.59631 | 16.30852 | 15282 ft | 359 kts | 323° |
| 2026-04-26 16:41 | 52.61715 | 16.28587 | 15278 ft | 359 kts | 323° |
| 2026-04-26 16:41 | 52.63800 | 16.26318 | 15291 ft | 359 kts | 323° |
| 2026-04-26 16:41 | 52.65882 | 16.24049 | 15283 ft | 359 kts | 323° |
| 2026-04-26 16:42 | 52.67967 | 16.21775 | 15285 ft | 359 kts | 323° |
| 2026-04-26 16:42 | 52.70051 | 16.19499 | 15285 ft | 359 kts | 323° |
| 2026-04-26 16:42 | 52.72133 | 16.17222 | 15287 ft | 359 kts | 323° |
| 2026-04-26 16:42 | 52.74216 | 16.14942 | 15286 ft | 359 kts | 323° |
| 2026-04-26 16:43 | 52.76297 | 16.12661 | 15290 ft | 359 kts | 323° |
| 2026-04-26 16:43 | 52.78377 | 16.10378 | 15285 ft | 359 kts | 323° |
| 2026-04-26 16:43 | 52.80462 | 16.08088 | 15293 ft | 359 kts | 323° |
| 2026-04-26 16:43 | 52.82542 | 16.05800 | 15291 ft | 359 kts | 323° |
| 2026-04-26 16:44 | 52.84620 | 16.03512 | 15287 ft | 359 kts | 323° |
| 2026-04-26 16:44 | 52.86700 | 16.01219 | 15292 ft | 359 kts | 323° |
| 2026-04-26 16:44 | 52.88778 | 15.98926 | 15297 ft | 359 kts | 323° |
| 2026-04-26 16:44 | 52.90854 | 15.96632 | 15294 ft | 359 kts | 322° |
| 2026-04-26 16:45 | 52.92930 | 15.94335 | 15292 ft | 359 kts | 322° |
| 2026-04-26 16:45 | 52.95006 | 15.92036 | 15289 ft | 358 kts | 322° |
| 2026-04-26 16:45 | 52.97076 | 15.89740 | 15295 ft | 358 kts | 322° |
| 2026-04-26 16:45 | 52.99146 | 15.87442 | 15289 ft | 358 kts | 322° |
| 2026-04-26 16:46 | 53.01215 | 15.85142 | 15290 ft | 358 kts | 322° |
| 2026-04-26 16:46 | 53.03256 | 15.82870 | 15293 ft | 358 kts | 322° |
| 2026-04-26 16:46 | 53.05320 | 15.80571 | 15294 ft | 358 kts | 322° |
| 2026-04-26 16:46 | 53.07368 | 15.78289 | 15098 ft | 350 kts | 322° |
| 2026-04-26 16:47 | 53.09384 | 15.76040 | 14513 ft | 349 kts | 322° |
| 2026-04-26 16:47 | 53.11395 | 15.73790 | 13821 ft | 349 kts | 322° |
| 2026-04-26 16:47 | 53.13413 | 15.71530 | 13121 ft | 349 kts | 322° |
| 2026-04-26 16:47 | 53.15416 | 15.69284 | 12516 ft | 346 kts | 322° |
| 2026-04-26 16:48 | 53.17405 | 15.67053 | 11934 ft | 343 kts | 322° |
| 2026-04-26 16:48 | 53.19379 | 15.64836 | 11344 ft | 341 kts | 322° |
| 2026-04-26 16:48 | 53.21338 | 15.62632 | 10777 ft | 339 kts | 322° |
| 2026-04-26 16:48 | 53.23278 | 15.60449 | 10465 ft | 332 kts | 322° |
| 2026-04-26 16:49 | 53.25153 | 15.58341 | 10344 ft | 318 kts | 322° |
| 2026-04-26 16:49 | 53.26942 | 15.56326 | 10300 ft | 303 kts | 322° |
| 2026-04-26 16:49 | 53.28645 | 15.54407 | 10282 ft | 288 kts | 322° |
| 2026-04-26 16:49 | 53.30196 | 15.52464 | 10288 ft | 270 kts | 311° |
| 2026-04-26 16:50 | 53.31262 | 15.50018 | 10303 ft | 252 kts | 301° |
| 2026-04-26 16:50 | 53.32205 | 15.47652 | 10128 ft | 239 kts | 303° |
| 2026-04-26 16:50 | 53.33118 | 15.45412 | 10008 ft | 223 kts | 302° |
| 2026-04-26 16:50 | 53.33902 | 15.43486 | 9881 ft | 206 kts | 302° |
| 2026-04-26 16:51 | 53.34672 | 15.41589 | 9758 ft | 188 kts | 302° |
| 2026-04-26 16:51 | 53.35388 | 15.39820 | 9388 ft | 181 kts | 302° |
| 2026-04-26 16:51 | 53.36090 | 15.38082 | 8840 ft | 181 kts | 302° |
| 2026-04-26 16:51 | 53.36796 | 15.36329 | 8287 ft | 182 kts | 302° |
| 2026-04-26 16:52 | 53.37504 | 15.34574 | 7762 ft | 182 kts | 302° |
| 2026-04-26 16:52 | 53.37971 | 15.33413 | 7417 ft | 182 kts | 302° |
| 2026-04-26 16:52 | 53.38904 | 15.31096 | 6755 ft | 178 kts | 302° |
| 2026-04-26 16:52 | 53.39608 | 15.29346 | 6022 ft | 180 kts | 302° |
| 2026-04-26 16:53 | 53.40308 | 15.27606 | 5349 ft | 180 kts | 302° |
| 2026-04-26 16:53 | 53.41002 | 15.25879 | 4695 ft | 178 kts | 302° |
| 2026-04-26 16:53 | 53.41692 | 15.24159 | 4072 ft | 177 kts | 302° |
| 2026-04-26 16:53 | 53.42380 | 15.22446 | 3559 ft | 178 kts | 302° |
| 2026-04-26 16:54 | 53.43041 | 15.20796 | 3414 ft | 168 kts | 302° |
| 2026-04-26 16:54 | 53.43675 | 15.19216 | 3308 ft | 156 kts | 302° |
| 2026-04-26 16:54 | 53.44242 | 15.17802 | 3296 ft | 139 kts | 302° |
| 2026-04-26 16:54 | 53.44823 | 15.16543 | 3341 ft | 138 kts | 308° |
| 2026-04-26 16:55 | 53.45451 | 15.15341 | 3176 ft | 135 kts | 308° |
| 2026-04-26 16:55 | 53.46062 | 15.14176 | 2738 ft | 133 kts | 308° |
| 2026-04-26 16:55 | 53.46676 | 15.13000 | 2235 ft | 134 kts | 308° |
| 2026-04-26 16:55 | 53.47287 | 15.11830 | 2087 ft | 131 kts | 307° |
| 2026-04-26 16:56 | 53.48465 | 15.09571 | 2000 ft | 128 kts | 307° |
| 2026-04-26 16:56 | 53.49048 | 15.08450 | 1999 ft | 127 kts | 307° |
| 2026-04-26 16:56 | 53.49250 | 15.08059 | 2007 ft | 127 kts | 307° |
| 2026-04-26 16:57 | 53.49695 | 15.07203 | 2011 ft | 129 kts | 307° |
| 2026-04-26 16:57 | 53.50288 | 15.06058 | 2000 ft | 131 kts | 308° |
| 2026-04-26 16:57 | 53.51493 | 15.03813 | 2006 ft | 128 kts | 307° |
| 2026-04-26 16:58 | 53.52075 | 15.02687 | 2000 ft | 127 kts | 307° |
| 2026-04-26 16:58 | 53.52458 | 15.01944 | 2008 ft | 127 kts | 307° |
| 2026-04-26 16:58 | 53.53805 | 14.99316 | 1752 ft | 127 kts | 308° |
| 2026-04-26 16:59 | 53.54337 | 14.98242 | 1587 ft | 128 kts | 309° |
| 2026-04-26 16:59 | 53.55517 | 14.95979 | 1045 ft | 133 kts | 308° |
| 2026-04-26 17:00 | 53.56718 | 14.93639 | 531 ft | 134 kts | 311° |
| 2026-04-26 17:00 | 53.57950 | 14.91241 | 156 ft | 134 kts | 313° |
| 2026-04-26 17:00 | 53.58461 | 14.90248 | 138 ft | 86 kts | 309° |
| 2026-04-26 17:01 | 53.58734 | 14.89705 | 132 ft | 50 kts | 310° |
| 2026-04-26 17:01 | 53.58914 | 14.89359 | 128 ft | 31 kts | 314° |
| 2026-04-26 17:01 | 53.59030 | 14.89148 | 130 ft | 24 kts | 326° |
| 2026-04-26 17:01 | 53.59136 | 14.89208 | 124 ft | 6 kts | 38° |
| 2026-04-26 17:02 | 53.59138 | 14.89211 | 124 ft | 0 kts | 38° |
| 2026-04-26 17:02 | 53.59140 | 14.89214 | 124 ft | 0 kts | 38° |
| 2026-04-26 17:02 | 53.59142 | 14.89215 | 124 ft | 0 kts | 38° |
| 2026-04-26 17:02 | 53.59145 | 14.89220 | 123 ft | 1 kts | 40° |
| 2026-04-26 17:03 | 53.59162 | 14.89282 | 124 ft | 12 kts | 90° |
| 2026-04-26 17:03 | 53.59110 | 14.89438 | 122 ft | 16 kts | 84° |
| 2026-04-26 17:03 | 53.59182 | 14.89565 | 122 ft | 15 kts | 40° |
| 2026-04-26 17:03 | 53.59232 | 14.89611 | 124 ft | 4 kts | 348° |
| 2026-04-26 17:04 | 53.59256 | 14.89578 | 123 ft | 0 kts | 311° |